createdAt,value
2023-10-10T00:00:04.681Z,5.97
2023-10-10T00:05:20.924Z,5.35
2023-10-10T00:10:35.884Z,5.57
2023-10-10T00:15:50.652Z,6.07
2023-10-10T00:21:05.972Z,4.97
2023-10-10T00:26:21.183Z,5.50
2023-10-10T00:31:36.843Z,5.68
2023-10-10T00:36:51.786Z,5.55
2023-10-10T00:42:06.646Z,5.38
2023-10-10T00:47:21.933Z,5.97
2023-10-10T00:52:37.815Z,5.30
2023-10-10T00:57:52.820Z,4.97
2023-10-10T01:03:08.010Z,5.57
2023-10-10T01:08:23.960Z,5.32
2023-10-10T01:13:39.549Z,5.00
2023-10-10T01:18:54.847Z,5.65
2023-10-10T01:24:09.876Z,5.43
2023-10-10T01:29:24.954Z,6.20
2023-10-10T01:34:39.848Z,5.47
2023-10-10T01:39:54.921Z,4.95
2023-10-10T01:45:10.142Z,4.80
2023-10-10T01:50:26.027Z,5.68
2023-10-10T01:55:42.874Z,6.25
2023-10-10T02:00:57.949Z,5.88
2023-10-10T02:06:13.136Z,5.68
2023-10-10T02:11:28.906Z,6.28
2023-10-10T02:16:44.103Z,6.18
2023-10-10T02:21:59.813Z,6.60
2023-10-10T02:27:16.211Z,5.63
2023-10-10T02:32:31.904Z,5.35
2023-10-10T02:37:46.934Z,5.78
2023-10-10T02:43:02.077Z,5.53
2023-10-10T02:48:17.679Z,5.25
2023-10-10T02:53:33.004Z,5.38
2023-10-10T02:58:48.885Z,5.38
2023-10-10T03:04:04.009Z,5.32
2023-10-10T03:09:20.058Z,5.13
2023-10-10T03:14:36.178Z,5.88
2023-10-10T03:19:52.665Z,5.88
2023-10-10T03:25:07.679Z,6.50
2023-10-10T03:30:22.919Z,8.02
2023-10-10T03:35:37.946Z,6.85
2023-10-10T03:40:52.923Z,6.57
2023-10-10T03:46:08.942Z,6.10
2023-10-10T03:51:23.815Z,6.47
2023-10-10T03:56:38.920Z,6.07
2023-10-10T04:01:54.017Z,8.27
2023-10-10T04:07:09.864Z,9.73
2023-10-10T04:12:25.028Z,9.98
2023-10-10T04:17:41.119Z,11.05
2023-10-10T04:22:56.815Z,12.82
2023-10-10T04:28:11.853Z,13.48
2023-10-10T04:33:26.953Z,11.52
2023-10-10T04:38:41.943Z,11.77
2023-10-10T04:43:56.956Z,13.18
2023-10-10T04:49:11.915Z,24.75
2023-10-10T04:54:26.856Z,32.90
2023-10-10T04:59:41.882Z,34.53
2023-10-10T05:04:56.944Z,31.05
2023-10-10T05:10:11.855Z,27.45
2023-10-10T05:15:26.820Z,27.92
2023-10-10T05:20:42.101Z,26.10
2023-10-10T05:25:57.884Z,25.45
2023-10-10T05:31:12.931Z,22.15
2023-10-10T05:36:27.889Z,22.27
2023-10-10T05:41:43.067Z,19.23
2023-10-10T05:46:58.991Z,18.90
2023-10-10T05:52:14.916Z,16.20
2023-10-10T05:57:29.854Z,16.60
2023-10-10T06:02:44.854Z,17.90
2023-10-10T06:08:00.237Z,16.58
2023-10-10T06:13:15.930Z,14.48
2023-10-10T06:18:30.969Z,15.15
2023-10-10T06:23:46.558Z,15.55
2023-10-10T06:29:03.378Z,16.95
2023-10-10T06:34:19.005Z,16.25
2023-10-10T06:39:34.073Z,16.08
2023-10-10T06:44:49.992Z,17.63
2023-10-10T06:50:04.869Z,15.60
2023-10-10T06:55:19.920Z,15.32
2023-10-10T07:00:34.889Z,15.90
2023-10-10T07:05:49.972Z,15.30
2023-10-10T07:11:05.169Z,15.50
2023-10-10T07:16:20.970Z,14.45
2023-10-10T07:21:35.936Z,14.43
2023-10-10T07:26:51.007Z,15.07
2023-10-10T07:32:07.113Z,13.63
2023-10-10T07:37:22.895Z,12.65
2023-10-10T07:42:37.848Z,12.35
2023-10-10T07:47:53.080Z,11.68
2023-10-10T07:53:08.977Z,13.00
2023-10-10T07:58:31.083Z,12.23
2023-10-10T08:03:56.955Z,12.40
2023-10-10T08:09:11.785Z,11.63
2023-10-10T08:14:26.955Z,11.60
2023-10-10T08:19:42.892Z,11.85
2023-10-10T08:24:57.867Z,11.13
2023-10-10T08:30:12.938Z,9.23
2023-10-10T08:35:28.028Z,10.52
2023-10-10T08:40:42.820Z,8.93
2023-10-10T08:45:57.991Z,10.13
2023-10-10T08:51:12.891Z,9.93
2023-10-10T08:56:27.900Z,8.80
2023-10-10T09:01:42.992Z,8.85
2023-10-10T09:06:57.916Z,9.23
2023-10-10T09:12:13.962Z,8.68
2023-10-10T09:17:28.982Z,7.63
2023-10-10T09:22:43.955Z,8.15
2023-10-10T09:27:59.211Z,7.50
2023-10-10T09:33:15.125Z,6.97
2023-10-10T09:38:31.026Z,6.93
2023-10-10T09:43:45.923Z,6.20
2023-10-10T09:49:00.887Z,6.03
2023-10-10T09:54:15.820Z,5.85
2023-10-10T09:59:30.959Z,5.95
2023-10-10T10:04:46.030Z,5.93
2023-10-10T10:10:02.214Z,6.05
2023-10-10T10:15:17.794Z,5.40
2023-10-10T10:20:32.899Z,5.35
2023-10-10T10:25:50.986Z,6.07
2023-10-10T10:31:06.141Z,5.30
2023-10-10T10:36:21.937Z,5.65
2023-10-10T10:41:36.934Z,5.00
2023-10-10T10:46:51.951Z,5.55
2023-10-10T10:52:08.566Z,5.55
2023-10-10T10:57:32.544Z,5.40
2023-10-10T11:02:55.032Z,5.40
2023-10-10T11:08:09.908Z,4.85
2023-10-10T11:13:25.218Z,4.78
2023-10-10T11:18:41.062Z,5.35
2023-10-10T11:23:56.106Z,6.18
2023-10-10T11:29:11.937Z,5.07
2023-10-10T11:34:26.894Z,5.25
2023-10-10T11:39:41.910Z,4.95
2023-10-10T11:44:57.006Z,4.95
2023-10-10T11:50:11.930Z,5.55
2023-10-10T11:55:26.897Z,7.43
2023-10-10T12:00:41.911Z,7.35
2023-10-10T12:05:57.217Z,6.53
2023-10-10T12:11:14.065Z,7.05
2023-10-10T12:16:30.243Z,7.25
2023-10-10T12:21:45.979Z,8.45
2023-10-10T12:27:00.648Z,8.15
2023-10-10T12:32:53.898Z,7.68
2023-10-10T12:38:08.984Z,8.45
2023-10-10T12:43:23.958Z,23.95
2023-10-10T12:48:38.911Z,20.30
2023-10-10T12:53:55.842Z,14.32
2023-10-10T13:04:34.050Z,10.57
2023-10-10T13:09:49.965Z,8.95
2023-10-10T13:15:05.006Z,8.68
2023-10-10T13:20:20.109Z,8.07
2023-10-10T13:25:35.948Z,7.80
2023-10-10T13:30:51.013Z,9.07
2023-10-10T13:36:07.935Z,8.05
2023-10-10T13:41:23.187Z,7.93
2023-10-10T13:46:39.137Z,8.95
2023-10-10T13:51:54.938Z,6.93
2023-10-10T13:57:09.808Z,6.53
2023-10-10T14:02:26.213Z,7.00
2023-10-10T14:07:43.304Z,6.63
2023-10-10T14:13:09.970Z,6.65
2023-10-10T14:18:33.398Z,7.15
2023-10-10T14:23:49.913Z,7.57
2023-10-10T14:29:05.995Z,8.15
2023-10-10T14:34:21.623Z,7.50
2023-10-10T14:39:36.992Z,7.28
2023-10-10T14:44:51.789Z,5.30
2023-10-10T14:50:07.052Z,6.40
2023-10-10T14:55:23.044Z,6.45
2023-10-10T15:00:40.637Z,6.68
2023-10-10T15:05:58.032Z,7.10
2023-10-10T15:11:13.226Z,4.85
2023-10-10T15:16:29.062Z,5.70
2023-10-10T15:21:43.935Z,5.63
2023-10-10T15:26:58.978Z,5.63
2023-10-10T15:32:14.980Z,4.90
2023-10-10T15:37:29.864Z,7.30
2023-10-10T15:42:44.999Z,11.90
2023-10-10T15:48:00.231Z,13.50
2023-10-10T15:53:15.950Z,11.20
2023-10-10T15:58:31.201Z,9.90
2023-10-10T16:03:47.119Z,10.18
2023-10-10T16:09:02.979Z,9.02
2023-10-10T16:14:17.964Z,8.05
2023-10-10T16:19:32.924Z,8.57
2023-10-10T16:24:48.295Z,8.02
2023-10-10T16:30:03.954Z,7.30
2023-10-10T16:35:18.723Z,6.70
2023-10-10T16:40:33.920Z,6.38
2023-10-10T16:45:48.965Z,6.03
2023-10-10T16:51:03.953Z,6.18
2023-10-10T16:56:19.087Z,6.18
2023-10-10T17:01:33.944Z,6.53
2023-10-10T17:06:49.245Z,5.72
2023-10-10T17:12:05.059Z,6.13
2023-10-10T17:17:19.798Z,5.80
2023-10-10T17:22:35.039Z,5.80
2023-10-10T17:27:49.908Z,5.55
2023-10-10T17:33:05.095Z,6.03
2023-10-10T17:38:20.998Z,5.18
2023-10-10T17:43:36.363Z,5.20
2023-10-10T17:48:52.347Z,5.38
2023-10-10T17:54:08.330Z,5.32
2023-10-10T17:59:23.758Z,5.78
2023-10-10T18:04:39.165Z,5.03
2023-10-10T18:09:55.203Z,5.68
2023-10-10T18:15:11.075Z,5.10
2023-10-10T18:20:26.023Z,5.28
2023-10-10T18:25:41.025Z,4.80
2023-10-10T18:30:55.983Z,5.32
2023-10-10T18:36:11.010Z,5.60
2023-10-10T18:41:26.291Z,4.75
2023-10-10T18:46:42.496Z,5.72
2023-10-10T18:51:58.940Z,6.47
2023-10-10T18:57:13.998Z,5.00
2023-10-10T19:02:30.275Z,6.13
2023-10-10T19:07:46.981Z,5.22
2023-10-10T19:13:01.826Z,4.70
2023-10-10T19:18:17.748Z,5.88
2023-10-10T19:23:33.972Z,5.18
2023-10-10T19:28:48.996Z,5.60
2023-10-10T19:34:04.007Z,5.47
2023-10-10T19:39:19.091Z,5.03
2023-10-10T19:44:33.933Z,5.03
2023-10-10T19:49:48.901Z,4.82
2023-10-10T19:55:17.060Z,4.80
2023-10-10T20:00:37.442Z,4.97
2023-10-10T20:05:53.063Z,4.50
2023-10-10T20:11:08.733Z,4.43
2023-10-10T20:16:24.272Z,3.72
2023-10-10T20:21:40.955Z,4.72
2023-10-10T20:26:56.098Z,4.78
2023-10-10T20:32:10.915Z,4.57
2023-10-10T20:37:25.967Z,4.95
2023-10-10T20:42:40.986Z,4.80
2023-10-10T20:47:56.149Z,4.30
2023-10-10T20:53:11.948Z,3.97
2023-10-10T20:58:27.329Z,4.15
2023-10-10T21:03:42.945Z,4.15
2023-10-10T21:09:00.425Z,4.22
2023-10-10T21:14:17.098Z,3.83
2023-10-10T21:19:33.029Z,3.85
2023-10-10T21:24:47.905Z,4.38
2023-10-10T21:30:03.482Z,4.05
2023-10-10T21:35:19.979Z,4.32
2023-10-10T21:40:34.953Z,4.88
2023-10-10T21:45:49.931Z,4.28
2023-10-10T21:51:07.928Z,4.22
2023-10-10T21:56:24.039Z,4.03
2023-10-10T22:01:38.940Z,4.38
2023-10-10T22:06:54.002Z,3.97
2023-10-10T22:12:09.028Z,4.32
2023-10-10T22:17:24.494Z,4.28
2023-10-10T22:22:41.046Z,4.10
2023-10-10T22:27:56.754Z,3.85
2023-10-10T22:33:12.598Z,4.28
2023-10-10T22:38:28.238Z,4.25
2023-10-10T22:43:44.009Z,3.88
2023-10-10T22:48:59.439Z,3.78
2023-10-10T22:54:15.935Z,3.80
2023-10-10T22:59:31.021Z,4.38
2023-10-10T23:04:45.941Z,4.07
2023-10-10T23:10:01.062Z,3.72
2023-10-10T23:15:16.010Z,4.10
2023-10-10T23:20:31.374Z,3.83
2023-10-10T23:25:47.015Z,4.07
2023-10-10T23:31:02.159Z,3.92
2023-10-10T23:36:18.076Z,4.68
2023-10-10T23:41:32.963Z,3.63
2023-10-10T23:46:48.187Z,3.75
2023-10-10T23:52:03.985Z,4.18
2023-10-10T23:57:18.946Z,3.97
